sensor_id;sensor_type;location;lat;lon;timestamp;P1;durP1;ratioP1;P2;durP2;ratioP2
22490;SDS011;11412;50.802;4.350;2023-01-15T00:00:19;6.15;;;1.05;;
22490;SDS011;11412;50.802;4.350;2023-01-15T00:02:45;5.07;;;1.10;;
22490;SDS011;11412;50.802;4.350;2023-01-15T00:05:10;7.70;;;1.70;;
22490;SDS011;11412;50.802;4.350;2023-01-15T00:07:36;2.17;;;1.20;;
22490;SDS011;11412;50.802;4.350;2023-01-15T00:10:02;4.97;;;1.27;;
22490;SDS011;11412;50.802;4.350;2023-01-15T00:12:28;4.07;;;1.58;;
22490;SDS011;11412;50.802;4.350;2023-01-15T00:14:53;9.48;;;1.20;;
22490;SDS011;11412;50.802;4.350;2023-01-15T00:17:20;7.70;;;1.70;;
22490;SDS011;11412;50.802;4.350;2023-01-15T00:19:46;10.02;;;1.48;;
22490;SDS011;11412;50.802;4.350;2023-01-15T00:22:12;7.13;;;1.45;;
22490;SDS011;11412;50.802;4.350;2023-01-15T00:24:37;7.80;;;1.52;;
22490;SDS011;11412;50.802;4.350;2023-01-15T00:27:22;4.28;;;1.52;;
22490;SDS011;11412;50.802;4.350;2023-01-15T00:30:03;7.68;;;1.55;;
22490;SDS011;11412;50.802;4.350;2023-01-15T00:32:30;7.45;;;1.38;;
22490;SDS011;11412;50.802;4.350;2023-01-15T00:34:58;4.80;;;1.15;;
22490;SDS011;11412;50.802;4.350;2023-01-15T00:37:24;5.10;;;1.45;;
22490;SDS011;11412;50.802;4.350;2023-01-15T00:39:50;7.55;;;1.27;;
22490;SDS011;11412;50.802;4.350;2023-01-15T00:42:16;13.75;;;1.55;;
22490;SDS011;11412;50.802;4.350;2023-01-15T00:44:42;7.35;;;1.45;;
22490;SDS011;11412;50.802;4.350;2023-01-15T00:47:08;5.95;;;1.30;;
22490;SDS011;11412;50.802;4.350;2023-01-15T00:49:38;7.00;;;1.35;;
22490;SDS011;11412;50.802;4.350;2023-01-15T00:52:04;5.43;;;1.40;;
22490;SDS011;11412;50.802;4.350;2023-01-15T00:54:30;7.43;;;1.52;;
22490;SDS011;11412;50.802;4.350;2023-01-15T00:56:57;7.32;;;1.33;;
22490;SDS011;11412;50.802;4.350;2023-01-15T00:59:23;7.07;;;1.23;;
22490;SDS011;11412;50.802;4.350;2023-01-15T01:01:49;10.00;;;1.10;;
22490;SDS011;11412;50.802;4.350;2023-01-15T01:04:14;8.43;;;1.50;;
22490;SDS011;11412;50.802;4.350;2023-01-15T01:06:40;14.93;;;3.08;;
22490;SDS011;11412;50.802;4.350;2023-01-15T01:09:06;7.28;;;1.17;;
22490;SDS011;11412;50.802;4.350;2023-01-15T01:11:31;10.93;;;1.70;;
22490;SDS011;11412;50.802;4.350;2023-01-15T01:13:58;7.88;;;2.28;;
22490;SDS011;11412;50.802;4.350;2023-01-15T01:16:29;5.78;;;1.55;;
22490;SDS011;11412;50.802;4.350;2023-01-15T01:19:03;9.57;;;1.75;;
22490;SDS011;11412;50.802;4.350;2023-01-15T01:21:31;10.88;;;1.48;;
22490;SDS011;11412;50.802;4.350;2023-01-15T01:23:57;11.80;;;1.38;;
22490;SDS011;11412;50.802;4.350;2023-01-15T01:26:24;8.88;;;1.70;;
22490;SDS011;11412;50.802;4.350;2023-01-15T01:28:50;6.15;;;1.40;;
22490;SDS011;11412;50.802;4.350;2023-01-15T01:31:18;8.43;;;1.30;;
22490;SDS011;11412;50.802;4.350;2023-01-15T01:33:46;4.53;;;1.40;;
22490;SDS011;11412;50.802;4.350;2023-01-15T01:36:13;6.88;;;1.35;;
22490;SDS011;11412;50.802;4.350;2023-01-15T01:38:39;8.38;;;1.20;;
22490;SDS011;11412;50.802;4.350;2023-01-15T01:41:05;5.68;;;1.17;;
22490;SDS011;11412;50.802;4.350;2023-01-15T01:43:30;5.88;;;1.55;;
22490;SDS011;11412;50.802;4.350;2023-01-15T01:46:27;10.18;;;1.55;;
22490;SDS011;11412;50.802;4.350;2023-01-15T01:48:55;8.93;;;1.80;;
22490;SDS011;11412;50.802;4.350;2023-01-15T01:51:26;8.63;;;1.48;;
22490;SDS011;11412;50.802;4.350;2023-01-15T01:53:55;8.98;;;1.85;;
22490;SDS011;11412;50.802;4.350;2023-01-15T01:56:23;6.32;;;1.50;;
22490;SDS011;11412;50.802;4.350;2023-01-15T01:58:50;7.75;;;1.30;;
22490;SDS011;11412;50.802;4.350;2023-01-15T02:01:19;4.95;;;1.13;;
22490;SDS011;11412;50.802;4.350;2023-01-15T02:03:47;8.18;;;1.50;;
22490;SDS011;11412;50.802;4.350;2023-01-15T02:06:13;7.70;;;1.27;;
22490;SDS011;11412;50.802;4.350;2023-01-15T02:08:40;7.75;;;1.30;;
22490;SDS011;11412;50.802;4.350;2023-01-15T02:11:06;12.05;;;1.42;;
22490;SDS011;11412;50.802;4.350;2023-01-15T02:13:39;8.32;;;1.70;;
22490;SDS011;11412;50.802;4.350;2023-01-15T02:16:34;3.58;;;1.45;;
22490;SDS011;11412;50.802;4.350;2023-01-15T02:22:43;7.05;;;1.45;;
22490;SDS011;11412;50.802;4.350;2023-01-15T02:28:19;6.80;;;1.52;;
22490;SDS011;11412;50.802;4.350;2023-01-15T02:30:52;7.75;;;1.33;;
22490;SDS011;11412;50.802;4.350;2023-01-15T02:33:31;10.88;;;1.13;;
22490;SDS011;11412;50.802;4.350;2023-01-15T02:36:00;6.60;;;1.13;;
22490;SDS011;11412;50.802;4.350;2023-01-15T02:38:31;5.60;;;1.55;;
22490;SDS011;11412;50.802;4.350;2023-01-15T02:41:11;6.57;;;1.30;;
22490;SDS011;11412;50.802;4.350;2023-01-15T02:43:53;8.40;;;1.45;;
22490;SDS011;11412;50.802;4.350;2023-01-15T02:46:22;9.65;;;1.40;;
22490;SDS011;11412;50.802;4.350;2023-01-15T02:48:52;7.38;;;1.02;;
22490;SDS011;11412;50.802;4.350;2023-01-15T02:51:25;8.50;;;1.50;;
22490;SDS011;11412;50.802;4.350;2023-01-15T02:53:56;11.07;;;1.38;;
22490;SDS011;11412;50.802;4.350;2023-01-15T02:56:27;9.63;;;1.90;;
22490;SDS011;11412;50.802;4.350;2023-01-15T02:58:56;7.28;;;1.55;;
22490;SDS011;11412;50.802;4.350;2023-01-15T03:02:13;4.45;;;1.13;;
22490;SDS011;11412;50.802;4.350;2023-01-15T03:06:54;7.43;;;1.63;;
22490;SDS011;11412;50.802;4.350;2023-01-15T03:09:29;8.65;;;1.30;;
22490;SDS011;11412;50.802;4.350;2023-01-15T03:12:17;5.70;;;1.42;;
22490;SDS011;11412;50.802;4.350;2023-01-15T03:17:22;10.52;;;1.58;;
22490;SDS011;11412;50.802;4.350;2023-01-15T03:19:57;6.47;;;1.00;;
22490;SDS011;11412;50.802;4.350;2023-01-15T03:22:31;4.63;;;1.50;;
22490;SDS011;11412;50.802;4.350;2023-01-15T03:25:04;8.10;;;1.20;;
22490;SDS011;11412;50.802;4.350;2023-01-15T03:27:37;4.60;;;0.93;;
22490;SDS011;11412;50.802;4.350;2023-01-15T03:30:08;2.95;;;0.88;;
22490;SDS011;11412;50.802;4.350;2023-01-15T03:32:38;12.63;;;1.55;;
22490;SDS011;11412;50.802;4.350;2023-01-15T03:35:05;7.97;;;1.35;;
22490;SDS011;11412;50.802;4.350;2023-01-15T03:37:51;9.82;;;1.02;;
22490;SDS011;11412;50.802;4.350;2023-01-15T03:40:17;10.88;;;1.30;;
22490;SDS011;11412;50.802;4.350;2023-01-15T03:45:37;5.32;;;0.93;;
22490;SDS011;11412;50.802;4.350;2023-01-15T03:48:11;5.25;;;0.90;;
22490;SDS011;11412;50.802;4.350;2023-01-15T03:54:04;4.00;;;0.82;;
22490;SDS011;11412;50.802;4.350;2023-01-15T04:01:29;5.47;;;0.90;;
22490;SDS011;11412;50.802;4.350;2023-01-15T04:04:00;4.32;;;0.80;;
22490;SDS011;11412;50.802;4.350;2023-01-15T04:06:27;4.30;;;0.73;;
22490;SDS011;11412;50.802;4.350;2023-01-15T04:08:55;7.55;;;1.10;;
22490;SDS011;11412;50.802;4.350;2023-01-15T04:11:23;2.53;;;0.80;;
22490;SDS011;11412;50.802;4.350;2023-01-15T04:13:50;8.30;;;1.10;;
22490;SDS011;11412;50.802;4.350;2023-01-15T04:16:18;6.05;;;1.40;;
22490;SDS011;11412;50.802;4.350;2023-01-15T04:18:50;9.25;;;1.17;;
22490;SDS011;11412;50.802;4.350;2023-01-15T04:21:16;4.72;;;0.95;;
22490;SDS011;11412;50.802;4.350;2023-01-15T04:23:41;5.75;;;0.88;;
22490;SDS011;11412;50.802;4.350;2023-01-15T04:26:07;5.15;;;0.77;;
22490;SDS011;11412;50.802;4.350;2023-01-15T04:28:33;5.90;;;1.05;;
22490;SDS011;11412;50.802;4.350;2023-01-15T04:30:58;3.33;;;0.90;;
22490;SDS011;11412;50.802;4.350;2023-01-15T04:33:24;5.05;;;1.02;;
22490;SDS011;11412;50.802;4.350;2023-01-15T04:35:50;5.30;;;0.85;;
22490;SDS011;11412;50.802;4.350;2023-01-15T04:38:16;3.70;;;0.70;;
22490;SDS011;11412;50.802;4.350;2023-01-15T04:40:42;6.78;;;1.40;;
22490;SDS011;11412;50.802;4.350;2023-01-15T04:46:11;3.83;;;0.63;;
22490;SDS011;11412;50.802;4.350;2023-01-15T04:48:37;4.55;;;0.88;;
22490;SDS011;11412;50.802;4.350;2023-01-15T04:51:04;5.38;;;0.75;;
22490;SDS011;11412;50.802;4.350;2023-01-15T04:53:30;4.13;;;0.93;;
22490;SDS011;11412;50.802;4.350;2023-01-15T04:56:00;6.65;;;1.02;;
22490;SDS011;11412;50.802;4.350;2023-01-15T04:58:28;6.65;;;1.20;;
22490;SDS011;11412;50.802;4.350;2023-01-15T05:00:54;5.07;;;1.02;;
22490;SDS011;11412;50.802;4.350;2023-01-15T05:03:21;9.88;;;1.20;;
22490;SDS011;11412;50.802;4.350;2023-01-15T05:05:46;5.57;;;0.85;;
22490;SDS011;11412;50.802;4.350;2023-01-15T05:08:14;6.88;;;1.20;;
22490;SDS011;11412;50.802;4.350;2023-01-15T05:10:39;5.25;;;0.80;;
22490;SDS011;11412;50.802;4.350;2023-01-15T05:13:05;3.05;;;0.90;;
22490;SDS011;11412;50.802;4.350;2023-01-15T05:15:30;3.47;;;0.80;;
22490;SDS011;11412;50.802;4.350;2023-01-15T05:17:56;2.55;;;0.70;;
22490;SDS011;11412;50.802;4.350;2023-01-15T05:20:21;2.53;;;0.82;;
22490;SDS011;11412;50.802;4.350;2023-01-15T05:22:47;4.22;;;1.05;;
22490;SDS011;11412;50.802;4.350;2023-01-15T05:25:13;1.77;;;0.50;;
22490;SDS011;11412;50.802;4.350;2023-01-15T05:27:38;4.65;;;0.80;;
22490;SDS011;11412;50.802;4.350;2023-01-15T05:30:05;6.90;;;1.30;;
22490;SDS011;11412;50.802;4.350;2023-01-15T05:32:31;1.98;;;0.80;;
22490;SDS011;11412;50.802;4.350;2023-01-15T05:34:57;4.13;;;1.13;;
22490;SDS011;11412;50.802;4.350;2023-01-15T05:37:22;4.68;;;0.80;;
22490;SDS011;11412;50.802;4.350;2023-01-15T05:39:48;3.50;;;0.70;;
22490;SDS011;11412;50.802;4.350;2023-01-15T05:42:14;3.08;;;0.50;;
22490;SDS011;11412;50.802;4.350;2023-01-15T05:44:39;4.65;;;0.77;;
22490;SDS011;11412;50.802;4.350;2023-01-15T05:47:05;0.88;;;0.50;;
22490;SDS011;11412;50.802;4.350;2023-01-15T05:49:31;2.85;;;0.65;;
22490;SDS011;11412;50.802;4.350;2023-01-15T05:51:58;4.93;;;0.55;;
22490;SDS011;11412;50.802;4.350;2023-01-15T05:54:26;8.30;;;1.00;;
22490;SDS011;11412;50.802;4.350;2023-01-15T05:56:54;1.50;;;0.80;;
22490;SDS011;11412;50.802;4.350;2023-01-15T05:59:21;4.68;;;1.02;;
22490;SDS011;11412;50.802;4.350;2023-01-15T06:01:49;2.95;;;0.60;;
22490;SDS011;11412;50.802;4.350;2023-01-15T06:04:15;7.18;;;1.05;;
22490;SDS011;11412;50.802;4.350;2023-01-15T06:06:45;3.17;;;0.47;;
22490;SDS011;11412;50.802;4.350;2023-01-15T06:09:11;4.68;;;0.68;;
22490;SDS011;11412;50.802;4.350;2023-01-15T06:11:37;2.75;;;0.32;;
22490;SDS011;11412;50.802;4.350;2023-01-15T06:14:04;1.13;;;0.50;;
22490;SDS011;11412;50.802;4.350;2023-01-15T06:16:30;0.82;;;0.22;;
22490;SDS011;11412;50.802;4.350;2023-01-15T06:19:02;1.30;;;0.20;;
22490;SDS011;11412;50.802;4.350;2023-01-15T06:21:29;1.58;;;0.30;;
22490;SDS011;11412;50.802;4.350;2023-01-15T06:23:55;1.55;;;0.30;;
22490;SDS011;11412;50.802;4.350;2023-01-15T06:26:21;1.05;;;0.50;;
22490;SDS011;11412;50.802;4.350;2023-01-15T06:28:47;1.35;;;0.60;;
22490;SDS011;11412;50.802;4.350;2023-01-15T06:31:13;0.98;;;0.47;;
22490;SDS011;11412;50.802;4.350;2023-01-15T06:33:41;2.35;;;0.60;;
22490;SDS011;11412;50.802;4.350;2023-01-15T06:36:12;3.17;;;0.73;;
22490;SDS011;11412;50.802;4.350;2023-01-15T06:38:40;8.02;;;1.33;;
22490;SDS011;11412;50.802;4.350;2023-01-15T06:41:08;6.13;;;1.05;;
22490;SDS011;11412;50.802;4.350;2023-01-15T06:43:57;9.25;;;1.30;;
22490;SDS011;11412;50.802;4.350;2023-01-15T06:46:43;6.90;;;0.80;;
22490;SDS011;11412;50.802;4.350;2023-01-15T06:49:29;6.65;;;0.85;;
22490;SDS011;11412;50.802;4.350;2023-01-15T06:51:55;9.07;;;0.88;;
22490;SDS011;11412;50.802;4.350;2023-01-15T06:54:22;5.25;;;1.05;;
22490;SDS011;11412;50.802;4.350;2023-01-15T06:56:47;7.13;;;1.30;;
22490;SDS011;11412;50.802;4.350;2023-01-15T06:59:13;4.05;;;0.70;;
22490;SDS011;11412;50.802;4.350;2023-01-15T07:01:39;6.10;;;1.08;;
22490;SDS011;11412;50.802;4.350;2023-01-15T07:04:04;4.47;;;1.25;;
22490;SDS011;11412;50.802;4.350;2023-01-15T07:06:30;5.10;;;1.00;;
22490;SDS011;11412;50.802;4.350;2023-01-15T07:08:56;3.92;;;1.42;;
22490;SDS011;11412;50.802;4.350;2023-01-15T07:11:21;4.90;;;0.80;;
22490;SDS011;11412;50.802;4.350;2023-01-15T07:13:47;5.55;;;0.63;;
22490;SDS011;11412;50.802;4.350;2023-01-15T07:16:13;6.10;;;0.90;;
22490;SDS011;11412;50.802;4.350;2023-01-15T07:18:54;5.97;;;1.52;;
22490;SDS011;11412;50.802;4.350;2023-01-15T07:21:21;8.43;;;1.10;;
22490;SDS011;11412;50.802;4.350;2023-01-15T07:23:47;7.50;;;0.85;;
22490;SDS011;11412;50.802;4.350;2023-01-15T07:26:13;3.05;;;0.88;;
22490;SDS011;11412;50.802;4.350;2023-01-15T07:28:39;8.85;;;0.90;;
22490;SDS011;11412;50.802;4.350;2023-01-15T07:31:04;11.32;;;1.02;;
22490;SDS011;11412;50.802;4.350;2023-01-15T07:33:30;6.97;;;0.85;;
22490;SDS011;11412;50.802;4.350;2023-01-15T07:35:56;4.95;;;0.80;;
22490;SDS011;11412;50.802;4.350;2023-01-15T07:38:22;3.92;;;0.75;;
22490;SDS011;11412;50.802;4.350;2023-01-15T07:40:47;6.90;;;0.95;;
22490;SDS011;11412;50.802;4.350;2023-01-15T07:43:33;6.78;;;1.00;;
22490;SDS011;11412;50.802;4.350;2023-01-15T07:46:17;9.82;;;1.00;;
22490;SDS011;11412;50.802;4.350;2023-01-15T07:49:01;7.00;;;1.33;;
22490;SDS011;11412;50.802;4.350;2023-01-15T07:51:47;5.45;;;1.10;;
22490;SDS011;11412;50.802;4.350;2023-01-15T07:54:13;4.80;;;0.85;;
22490;SDS011;11412;50.802;4.350;2023-01-15T07:56:38;6.45;;;1.08;;
22490;SDS011;11412;50.802;4.350;2023-01-15T07:59:04;7.97;;;1.23;;
22490;SDS011;11412;50.802;4.350;2023-01-15T08:01:30;8.20;;;1.00;;
22490;SDS011;11412;50.802;4.350;2023-01-15T08:03:55;12.30;;;1.33;;
22490;SDS011;11412;50.802;4.350;2023-01-15T08:06:21;6.38;;;1.05;;
22490;SDS011;11412;50.802;4.350;2023-01-15T08:08:46;6.78;;;1.15;;
22490;SDS011;11412;50.802;4.350;2023-01-15T08:11:12;7.28;;;1.40;;
22490;SDS011;11412;50.802;4.350;2023-01-15T08:13:56;5.57;;;1.30;;
22490;SDS011;11412;50.802;4.350;2023-01-15T08:16:40;6.25;;;1.13;;
22490;SDS011;11412;50.802;4.350;2023-01-15T08:19:06;7.95;;;1.20;;
22490;SDS011;11412;50.802;4.350;2023-01-15T08:21:32;6.35;;;0.98;;
22490;SDS011;11412;50.802;4.350;2023-01-15T08:23:57;9.55;;;1.25;;
22490;SDS011;11412;50.802;4.350;2023-01-15T08:26:23;9.18;;;1.70;;
22490;SDS011;11412;50.802;4.350;2023-01-15T08:28:48;7.38;;;1.38;;
22490;SDS011;11412;50.802;4.350;2023-01-15T08:31:15;5.78;;;1.40;;
22490;SDS011;11412;50.802;4.350;2023-01-15T08:33:41;7.60;;;0.88;;
22490;SDS011;11412;50.802;4.350;2023-01-15T08:36:06;7.13;;;1.15;;
22490;SDS011;11412;50.802;4.350;2023-01-15T08:38:32;7.85;;;1.58;;
22490;SDS011;11412;50.802;4.350;2023-01-15T08:40:58;8.38;;;0.90;;
22490;SDS011;11412;50.802;4.350;2023-01-15T08:43:25;5.18;;;1.10;;
22490;SDS011;11412;50.802;4.350;2023-01-15T08:45:51;7.85;;;1.75;;
22490;SDS011;11412;50.802;4.350;2023-01-15T08:48:17;5.38;;;1.10;;
22490;SDS011;11412;50.802;4.350;2023-01-15T08:50:43;7.90;;;1.08;;
22490;SDS011;11412;50.802;4.350;2023-01-15T08:53:09;8.57;;;1.15;;
22490;SDS011;11412;50.802;4.350;2023-01-15T08:55:35;11.55;;;1.55;;
22490;SDS011;11412;50.802;4.350;2023-01-15T08:58:01;10.65;;;1.42;;
22490;SDS011;11412;50.802;4.350;2023-01-15T09:00:27;8.02;;;1.08;;
22490;SDS011;11412;50.802;4.350;2023-01-15T09:02:52;4.18;;;0.88;;
22490;SDS011;11412;50.802;4.350;2023-01-15T09:05:18;3.70;;;0.98;;
22490;SDS011;11412;50.802;4.350;2023-01-15T09:07:44;5.88;;;1.15;;
22490;SDS011;11412;50.802;4.350;2023-01-15T09:10:09;7.95;;;1.38;;
22490;SDS011;11412;50.802;4.350;2023-01-15T09:12:35;5.60;;;0.88;;
22490;SDS011;11412;50.802;4.350;2023-01-15T09:15:00;6.20;;;1.25;;
22490;SDS011;11412;50.802;4.350;2023-01-15T09:17:26;5.72;;;1.00;;
22490;SDS011;11412;50.802;4.350;2023-01-15T09:19:52;3.97;;;1.00;;
22490;SDS011;11412;50.802;4.350;2023-01-15T09:22:18;5.97;;;0.98;;
22490;SDS011;11412;50.802;4.350;2023-01-15T09:24:44;4.10;;;0.85;;
22490;SDS011;11412;50.802;4.350;2023-01-15T09:27:10;3.88;;;0.82;;
22490;SDS011;11412;50.802;4.350;2023-01-15T09:29:36;3.03;;;0.68;;
22490;SDS011;11412;50.802;4.350;2023-01-15T09:32:02;5.65;;;1.00;;
22490;SDS011;11412;50.802;4.350;2023-01-15T09:34:27;2.75;;;1.02;;
22490;SDS011;11412;50.802;4.350;2023-01-15T09:36:53;5.30;;;1.02;;
22490;SDS011;11412;50.802;4.350;2023-01-15T09:39:19;1.88;;;0.80;;
22490;SDS011;11412;50.802;4.350;2023-01-15T09:47:52;5.50;;;0.80;;
22490;SDS011;11412;50.802;4.350;2023-01-15T09:50:23;3.42;;;0.85;;
22490;SDS011;11412;50.802;4.350;2023-01-15T09:55:47;7.93;;;1.25;;
22490;SDS011;11412;50.802;4.350;2023-01-15T09:58:16;1.95;;;0.63;;
22490;SDS011;11412;50.802;4.350;2023-01-15T10:00:45;4.65;;;0.85;;
22490;SDS011;11412;50.802;4.350;2023-01-15T10:08:23;3.47;;;0.73;;
22490;SDS011;11412;50.802;4.350;2023-01-15T10:10:57;3.10;;;0.70;;
22490;SDS011;11412;50.802;4.350;2023-01-15T10:16:19;7.18;;;1.25;;
22490;SDS011;11412;50.802;4.350;2023-01-15T10:18:48;4.68;;;1.15;;
22490;SDS011;11412;50.802;4.350;2023-01-15T10:24:18;2.42;;;0.65;;
22490;SDS011;11412;50.802;4.350;2023-01-15T10:26:56;4.88;;;0.93;;
22490;SDS011;11412;50.802;4.350;2023-01-15T10:35:01;7.18;;;0.85;;
22490;SDS011;11412;50.802;4.350;2023-01-15T10:43:33;4.90;;;1.02;;
22490;SDS011;11412;50.802;4.350;2023-01-15T10:48:44;5.82;;;1.25;;
22490;SDS011;11412;50.802;4.350;2023-01-15T10:51:22;1.75;;;0.60;;
22490;SDS011;11412;50.802;4.350;2023-01-15T10:53:57;4.82;;;0.80;;
22490;SDS011;11412;50.802;4.350;2023-01-15T10:56:40;4.07;;;1.00;;
22490;SDS011;11412;50.802;4.350;2023-01-15T10:59:15;3.92;;;0.90;;
22490;SDS011;11412;50.802;4.350;2023-01-15T11:01:58;5.13;;;0.90;;
22490;SDS011;11412;50.802;4.350;2023-01-15T11:04:28;5.25;;;1.13;;
22490;SDS011;11412;50.802;4.350;2023-01-15T11:06:56;3.55;;;0.63;;
22490;SDS011;11412;50.802;4.350;2023-01-15T11:09:24;5.32;;;1.27;;
22490;SDS011;11412;50.802;4.350;2023-01-15T11:12:32;5.38;;;1.20;;
22490;SDS011;11412;50.802;4.350;2023-01-15T11:14:52;3.25;;;0.85;;
22490;SDS011;11412;50.802;4.350;2023-01-15T11:17:37;5.15;;;0.73;;
22490;SDS011;11412;50.802;4.350;2023-01-15T11:22:53;5.43;;;0.90;;
22490;SDS011;11412;50.802;4.350;2023-01-15T11:25:30;3.55;;;0.90;;
22490;SDS011;11412;50.802;4.350;2023-01-15T11:27:57;5.05;;;1.00;;
22490;SDS011;11412;50.802;4.350;2023-01-15T11:30:27;3.53;;;1.00;;
22490;SDS011;11412;50.802;4.350;2023-01-15T11:32:56;4.03;;;1.00;;
22490;SDS011;11412;50.802;4.350;2023-01-15T11:35:24;5.32;;;0.98;;
22490;SDS011;11412;50.802;4.350;2023-01-15T11:38:10;4.82;;;0.98;;
22490;SDS011;11412;50.802;4.350;2023-01-15T11:40:38;1.67;;;0.82;;
22490;SDS011;11412;50.802;4.350;2023-01-15T11:43:17;5.30;;;1.08;;
22490;SDS011;11412;50.802;4.350;2023-01-15T11:46:04;4.30;;;1.10;;
22490;SDS011;11412;50.802;4.350;2023-01-15T11:48:49;8.60;;;1.50;;
22490;SDS011;11412;50.802;4.350;2023-01-15T11:51:34;4.60;;;1.10;;
22490;SDS011;11412;50.802;4.350;2023-01-15T11:54:07;6.80;;;1.10;;
22490;SDS011;11412;50.802;4.350;2023-01-15T11:56:36;4.97;;;1.20;;
22490;SDS011;11412;50.802;4.350;2023-01-15T11:59:11;4.32;;;0.93;;
22490;SDS011;11412;50.802;4.350;2023-01-15T12:01:44;5.43;;;1.42;;
22490;SDS011;11412;50.802;4.350;2023-01-15T12:04:23;5.28;;;1.20;;
22490;SDS011;11412;50.802;4.350;2023-01-15T12:06:58;8.88;;;1.10;;
22490;SDS011;11412;50.802;4.350;2023-01-15T12:09:30;3.38;;;1.15;;
22490;SDS011;11412;50.802;4.350;2023-01-15T12:15:08;6.93;;;1.10;;
22490;SDS011;11412;50.802;4.350;2023-01-15T12:32:06;6.70;;;1.10;;
22490;SDS011;11412;50.802;4.350;2023-01-15T12:37:41;4.38;;;1.17;;
22490;SDS011;11412;50.802;4.350;2023-01-15T12:42:43;3.78;;;0.90;;
22490;SDS011;11412;50.802;4.350;2023-01-15T12:45:35;5.78;;;1.10;;
22490;SDS011;11412;50.802;4.350;2023-01-15T12:48:11;6.78;;;1.27;;
22490;SDS011;11412;50.802;4.350;2023-01-15T12:50:39;3.78;;;1.08;;
22490;SDS011;11412;50.802;4.350;2023-01-15T12:59:21;4.28;;;1.27;;
22490;SDS011;11412;50.802;4.350;2023-01-15T13:02:03;1.45;;;0.70;;
22490;SDS011;11412;50.802;4.350;2023-01-15T13:04:51;4.80;;;1.00;;
22490;SDS011;11412;50.802;4.350;2023-01-15T13:07:58;5.78;;;0.90;;
22490;SDS011;11412;50.802;4.350;2023-01-15T13:10:28;1.85;;;0.70;;
22490;SDS011;11412;50.802;4.350;2023-01-15T13:13:01;3.67;;;0.98;;
22490;SDS011;11412;50.802;4.350;2023-01-15T13:15:46;2.75;;;0.70;;
22490;SDS011;11412;50.802;4.350;2023-01-15T13:18:25;5.40;;;1.02;;
22490;SDS011;11412;50.802;4.350;2023-01-15T13:20:54;3.20;;;0.98;;
22490;SDS011;11412;50.802;4.350;2023-01-15T13:29:08;4.53;;;1.20;;
22490;SDS011;11412;50.802;4.350;2023-01-15T13:31:56;1.48;;;1.02;;
22490;SDS011;11412;50.802;4.350;2023-01-15T13:37:21;4.35;;;0.57;;
22490;SDS011;11412;50.802;4.350;2023-01-15T13:40:39;2.45;;;0.85;;
22490;SDS011;11412;50.802;4.350;2023-01-15T13:42:45;1.85;;;1.00;;
22490;SDS011;11412;50.802;4.350;2023-01-15T13:48:07;3.13;;;0.85;;
22490;SDS011;11412;50.802;4.350;2023-01-15T13:50:50;3.63;;;1.30;;
22490;SDS011;11412;50.802;4.350;2023-01-15T13:55:50;4.90;;;0.85;;
22490;SDS011;11412;50.802;4.350;2023-01-15T13:58:20;4.03;;;1.05;;
22490;SDS011;11412;50.802;4.350;2023-01-15T14:03:52;5.97;;;1.05;;
22490;SDS011;11412;50.802;4.350;2023-01-15T14:06:33;2.15;;;0.77;;
22490;SDS011;11412;50.802;4.350;2023-01-15T14:09:02;5.15;;;1.20;;
22490;SDS011;11412;50.802;4.350;2023-01-15T14:33:50;4.10;;;1.23;;
22490;SDS011;11412;50.802;4.350;2023-01-15T14:36:45;2.42;;;1.10;;
22490;SDS011;11412;50.802;4.350;2023-01-15T14:39:39;2.33;;;0.90;;
22490;SDS011;11412;50.802;4.350;2023-01-15T14:42:12;1.35;;;0.80;;
22490;SDS011;11412;50.802;4.350;2023-01-15T15:01:51;5.75;;;0.73;;
22490;SDS011;11412;50.802;4.350;2023-01-15T15:03:59;2.45;;;0.80;;
22490;SDS011;11412;50.802;4.350;2023-01-15T15:06:53;4.13;;;0.80;;
22490;SDS011;11412;50.802;4.350;2023-01-15T15:09:41;1.92;;;0.95;;
22490;SDS011;11412;50.802;4.350;2023-01-15T15:23:27;2.70;;;0.90;;
22490;SDS011;11412;50.802;4.350;2023-01-15T15:26:16;2.75;;;1.13;;
22490;SDS011;11412;50.802;4.350;2023-01-15T15:31:33;5.57;;;1.50;;
22490;SDS011;11412;50.802;4.350;2023-01-15T15:34:01;2.83;;;0.85;;
22490;SDS011;11412;50.802;4.350;2023-01-15T15:36:30;2.65;;;0.98;;
22490;SDS011;11412;50.802;4.350;2023-01-15T15:39:03;4.60;;;0.90;;
22490;SDS011;11412;50.802;4.350;2023-01-15T15:41:48;5.50;;;2.03;;
22490;SDS011;11412;50.802;4.350;2023-01-15T15:44:48;3.40;;;1.13;;
22490;SDS011;11412;50.802;4.350;2023-01-15T15:47:39;3.45;;;1.20;;
22490;SDS011;11412;50.802;4.350;2023-01-15T15:50:26;2.63;;;1.10;;
22490;SDS011;11412;50.802;4.350;2023-01-15T15:52:57;2.97;;;1.10;;
22490;SDS011;11412;50.802;4.350;2023-01-15T15:55:31;2.97;;;1.23;;
22490;SDS011;11412;50.802;4.350;2023-01-15T15:58:02;1.80;;;0.82;;
22490;SDS011;11412;50.802;4.350;2023-01-15T16:00:32;5.28;;;1.08;;
22490;SDS011;11412;50.802;4.350;2023-01-15T16:03:00;3.55;;;1.52;;
22490;SDS011;11412;50.802;4.350;2023-01-15T16:05:31;2.10;;;1.05;;
22490;SDS011;11412;50.802;4.350;2023-01-15T16:08:07;4.57;;;1.10;;
22490;SDS011;11412;50.802;4.350;2023-01-15T16:10:39;3.42;;;1.02;;
22490;SDS011;11412;50.802;4.350;2023-01-15T16:13:05;3.15;;;0.82;;
22490;SDS011;11412;50.802;4.350;2023-01-15T16:15:37;5.95;;;3.17;;
22490;SDS011;11412;50.802;4.350;2023-01-15T16:18:05;5.60;;;1.38;;
22490;SDS011;11412;50.802;4.350;2023-01-15T16:20:38;3.88;;;1.05;;
22490;SDS011;11412;50.802;4.350;2023-01-15T16:23:04;2.70;;;1.10;;
22490;SDS011;11412;50.802;4.350;2023-01-15T16:25:34;2.67;;;1.20;;
22490;SDS011;11412;50.802;4.350;2023-01-15T16:28:04;3.33;;;1.40;;
22490;SDS011;11412;50.802;4.350;2023-01-15T16:30:31;3.85;;;1.00;;
22490;SDS011;11412;50.802;4.350;2023-01-15T16:33:06;2.83;;;1.42;;
22490;SDS011;11412;50.802;4.350;2023-01-15T16:35:32;6.90;;;1.70;;
22490;SDS011;11412;50.802;4.350;2023-01-15T16:38:01;4.25;;;1.45;;
22490;SDS011;11412;50.802;4.350;2023-01-15T16:43:06;6.03;;;1.67;;
22490;SDS011;11412;50.802;4.350;2023-01-15T16:48:37;5.63;;;2.10;;
22490;SDS011;11412;50.802;4.350;2023-01-15T16:54:00;4.75;;;2.40;;
22490;SDS011;11412;50.802;4.350;2023-01-15T16:59:02;10.13;;;2.67;;
22490;SDS011;11412;50.802;4.350;2023-01-15T17:01:35;5.18;;;2.70;;
22490;SDS011;11412;50.802;4.350;2023-01-15T17:04:27;4.47;;;2.25;;
22490;SDS011;11412;50.802;4.350;2023-01-15T17:07:03;2.53;;;1.27;;
22490;SDS011;11412;50.802;4.350;2023-01-15T17:09:30;5.15;;;1.58;;
22490;SDS011;11412;50.802;4.350;2023-01-15T17:11:58;4.38;;;1.63;;
22490;SDS011;11412;50.802;4.350;2023-01-15T17:14:27;3.42;;;1.65;;
22490;SDS011;11412;50.802;4.350;2023-01-15T17:19:44;8.32;;;2.35;;
22490;SDS011;11412;50.802;4.350;2023-01-15T17:22:13;3.42;;;1.45;;
22490;SDS011;11412;50.802;4.350;2023-01-15T17:24:50;6.75;;;1.73;;
22490;SDS011;11412;50.802;4.350;2023-01-15T17:27:17;4.55;;;1.65;;
22490;SDS011;11412;50.802;4.350;2023-01-15T17:29:43;2.95;;;1.42;;
22490;SDS011;11412;50.802;4.350;2023-01-15T17:32:13;6.68;;;2.00;;
22490;SDS011;11412;50.802;4.350;2023-01-15T17:34:42;3.30;;;1.85;;
22490;SDS011;11412;50.802;4.350;2023-01-15T17:37:07;5.45;;;2.25;;
22490;SDS011;11412;50.802;4.350;2023-01-15T17:39:33;4.85;;;1.83;;
22490;SDS011;11412;50.802;4.350;2023-01-15T17:41:59;7.90;;;2.72;;
22490;SDS011;11412;50.802;4.350;2023-01-15T17:44:24;10.15;;;4.65;;
22490;SDS011;11412;50.802;4.350;2023-01-15T17:46:50;7.45;;;2.95;;
22490;SDS011;11412;50.802;4.350;2023-01-15T17:49:16;14.95;;;6.72;;
22490;SDS011;11412;50.802;4.350;2023-01-15T17:51:41;10.38;;;6.57;;
22490;SDS011;11412;50.802;4.350;2023-01-15T17:54:07;14.35;;;6.88;;
22490;SDS011;11412;50.802;4.350;2023-01-15T17:56:32;9.68;;;5.40;;
22490;SDS011;11412;50.802;4.350;2023-01-15T17:59:17;14.15;;;5.22;;
22490;SDS011;11412;50.802;4.350;2023-01-15T18:02:17;7.90;;;2.92;;
22490;SDS011;11412;50.802;4.350;2023-01-15T18:05:02;10.73;;;3.10;;